createdAt,value
2018-05-24T00:02:01.323Z,85.94
2018-05-24T00:04:33.873Z,86.34
2018-05-24T00:07:06.389Z,86.21
2018-05-24T00:09:38.749Z,86.25
2018-05-24T00:12:11.063Z,85.70
2018-05-24T00:14:43.491Z,85.81
2018-05-24T00:17:16.066Z,85.89
2018-05-24T00:19:48.785Z,86.21
2018-05-24T00:22:21.244Z,87.07
2018-05-24T00:24:53.759Z,88.18
2018-05-24T00:27:26.253Z,87.99
2018-05-24T00:29:58.821Z,87.54
2018-05-24T00:32:31.281Z,87.50
2018-05-24T00:35:03.732Z,86.89
2018-05-24T00:37:36.010Z,87.50
2018-05-24T00:40:08.580Z,88.24
2018-05-24T00:42:40.964Z,88.05
2018-05-24T00:45:13.449Z,87.74
2018-05-24T00:47:45.902Z,86.29
2018-05-24T00:50:18.282Z,87.12
2018-05-24T00:52:50.713Z,88.42
2018-05-24T00:55:35.198Z,88.94
2018-05-24T00:58:07.707Z,89.65
2018-05-24T01:00:40.870Z,90.47
2018-05-24T01:03:13.248Z,90.50
2018-05-24T01:05:45.842Z,90.85
2018-05-24T01:08:21.669Z,89.75
2018-05-24T01:10:54.067Z,89.19
2018-05-24T01:13:26.612Z,88.99
2018-05-24T01:15:59.171Z,89.12
2018-05-24T01:18:31.824Z,88.79
2018-05-24T01:21:04.524Z,88.47
2018-05-24T01:23:36.899Z,88.25
2018-05-24T01:26:09.415Z,87.64
2018-05-24T01:28:41.676Z,88.70
2018-05-24T01:31:14.100Z,88.45
2018-05-24T01:33:46.552Z,88.80
2018-05-24T01:36:19.194Z,89.47
2018-05-24T01:38:51.575Z,89.37
2018-05-24T01:41:23.944Z,88.64
2018-05-24T01:43:56.340Z,87.96
2018-05-24T01:46:28.926Z,89.02
2018-05-24T01:49:01.329Z,89.28
2018-05-24T01:51:33.763Z,88.43
2018-05-24T01:54:06.223Z,88.86
2018-05-24T01:56:38.605Z,87.33
2018-05-24T01:59:11.064Z,87.35
2018-05-24T02:01:43.575Z,88.28
2018-05-24T02:04:15.987Z,88.08
2018-05-24T02:06:48.395Z,88.53
2018-05-24T02:09:20.884Z,88.18
2018-05-24T02:11:53.259Z,87.57
2018-05-24T02:14:25.751Z,86.65
2018-05-24T02:16:58.293Z,87.49
2018-05-24T02:19:30.692Z,86.99
2018-05-24T02:22:03.400Z,86.45
2018-05-24T02:24:35.771Z,86.61
2018-05-24T02:27:08.252Z,86.44
2018-05-24T02:29:40.588Z,86.61
2018-05-24T02:32:12.997Z,86.41
2018-05-24T02:34:45.322Z,86.10
2018-05-24T02:37:17.895Z,85.54
2018-05-24T02:39:50.374Z,86.63
2018-05-24T02:42:22.912Z,87.10
2018-05-24T02:44:57.333Z,86.53
2018-05-24T02:47:29.863Z,86.04
2018-05-24T02:50:02.173Z,86.19
2018-05-24T02:52:34.801Z,85.25
2018-05-24T02:55:07.257Z,85.61
2018-05-24T02:57:39.589Z,87.02
2018-05-24T03:00:12.024Z,88.03
2018-05-24T03:02:44.557Z,86.81
2018-05-24T03:05:16.935Z,87.22
2018-05-24T03:07:49.483Z,87.06
2018-05-24T03:10:22.004Z,87.47
2018-05-24T03:12:54.323Z,88.24
2018-05-24T03:15:26.879Z,87.95
2018-05-24T03:17:59.305Z,85.88
2018-05-24T03:20:31.722Z,84.92
2018-05-24T03:23:04.302Z,84.84
2018-05-24T03:25:36.695Z,85.73
2018-05-24T03:28:09.043Z,85.26
2018-05-24T03:30:41.372Z,83.59
2018-05-24T03:33:13.679Z,84.48
2018-05-24T03:35:46.114Z,85.18
2018-05-24T03:38:19.084Z,85.28
2018-05-24T03:40:51.421Z,85.32
2018-05-24T03:43:23.897Z,85.32
2018-05-24T03:45:56.346Z,84.78
2018-05-24T03:48:28.893Z,83.67
2018-05-24T03:51:01.308Z,84.59
2018-05-24T03:56:29.522Z,85.03
2018-05-24T04:02:30.385Z,84.32
2018-05-24T04:05:02.876Z,84.91
2018-05-24T04:07:35.345Z,85.14
2018-05-24T04:10:07.956Z,84.98
2018-05-24T04:12:40.439Z,84.72
2018-05-24T04:15:13.131Z,84.04
2018-05-24T04:17:45.522Z,83.67
2018-05-24T04:20:18.051Z,82.36
2018-05-24T04:22:50.557Z,81.58
2018-05-24T04:25:23.232Z,80.97
2018-05-24T04:27:55.614Z,81.21
2018-05-24T04:30:28.108Z,79.58
2018-05-24T04:33:00.605Z,80.79
2018-05-24T04:35:33.281Z,80.66
2018-05-24T04:38:05.795Z,80.42
2018-05-24T04:40:38.436Z,80.68
2018-05-24T04:43:16.408Z,80.24
2018-05-24T04:45:49.038Z,79.40
2018-05-24T04:48:21.714Z,78.54
2018-05-24T04:50:54.143Z,76.87
2018-05-24T04:53:26.459Z,76.28
2018-05-24T04:55:59.007Z,75.39
2018-05-24T04:58:31.552Z,76.12
2018-05-24T05:01:04.115Z,74.80
2018-05-24T05:03:36.606Z,75.63
2018-05-24T05:06:09.116Z,72.19
2018-05-24T05:08:41.692Z,72.71
2018-05-24T05:11:14.324Z,72.46
2018-05-24T05:13:46.726Z,71.29
2018-05-24T05:16:19.273Z,72.00
2018-05-24T05:18:51.711Z,72.49
2018-05-24T05:21:24.269Z,73.35
2018-05-24T05:23:56.824Z,72.50
2018-05-24T05:26:29.439Z,72.97
2018-05-24T05:29:02.046Z,72.44
2018-05-24T05:31:34.651Z,72.26
2018-05-24T05:34:07.108Z,73.49
2018-05-24T05:36:39.544Z,74.06
2018-05-24T05:39:12.055Z,74.16
2018-05-24T05:41:44.874Z,75.10
2018-05-24T05:44:17.437Z,75.62
2018-05-24T05:46:50.018Z,75.38
2018-05-24T05:49:22.500Z,74.47
2018-05-24T05:51:55.184Z,73.69
2018-05-24T05:54:27.573Z,72.62
2018-05-24T05:57:00.286Z,72.08
2018-05-24T05:59:32.751Z,73.17
2018-05-24T06:02:05.408Z,74.42
2018-05-24T06:04:37.837Z,75.69
2018-05-24T06:07:10.226Z,74.68
2018-05-24T06:09:42.693Z,74.96
2018-05-24T06:12:15.337Z,75.74
2018-05-24T06:14:47.886Z,74.08
2018-05-24T06:17:20.458Z,74.56
2018-05-24T06:19:52.930Z,73.04
2018-05-24T06:22:25.494Z,73.79
2018-05-24T06:24:57.986Z,71.10
2018-05-24T06:27:30.734Z,69.38
2018-05-24T06:30:03.248Z,70.89
2018-05-24T06:32:35.732Z,70.26
2018-05-24T06:35:08.268Z,67.65
2018-05-24T06:37:40.801Z,67.99
2018-05-24T06:40:13.229Z,67.69
2018-05-24T06:42:45.978Z,67.72
2018-05-24T06:45:18.426Z,68.25
2018-05-24T06:47:51.004Z,66.87
2018-05-24T06:50:23.445Z,65.67
2018-05-24T06:52:56.084Z,66.51
2018-05-24T06:55:28.635Z,67.58
2018-05-24T06:58:01.154Z,64.49
2018-05-24T07:00:33.553Z,64.21
2018-05-24T07:03:06.137Z,65.15
2018-05-24T07:05:38.688Z,63.94
2018-05-24T07:08:11.184Z,61.86
2018-05-24T07:10:43.655Z,60.68
2018-05-24T07:13:16.359Z,59.48
2018-05-24T07:15:48.750Z,59.48
2018-05-24T07:18:21.289Z,60.21
2018-05-24T07:20:53.798Z,58.65
2018-05-24T07:23:26.343Z,59.79
2018-05-24T07:25:58.871Z,56.94
2018-05-24T07:28:32.651Z,57.63
2018-05-24T07:31:04.994Z,56.88
2018-05-24T07:33:37.445Z,55.56
2018-05-24T07:36:09.966Z,56.51
2018-05-24T07:38:42.449Z,53.72
2018-05-24T07:41:14.916Z,53.10
2018-05-24T07:43:47.580Z,54.33
2018-05-24T07:46:19.900Z,54.04
2018-05-24T07:48:52.274Z,55.00
2018-05-24T07:51:24.864Z,52.96
2018-05-24T07:53:57.459Z,53.06
2018-05-24T07:56:30.008Z,51.95
2018-05-24T07:59:02.458Z,51.76
2018-05-24T08:01:35.071Z,53.21
2018-05-24T08:04:07.490Z,53.16
2018-05-24T08:06:40.084Z,52.90
2018-05-24T08:09:12.662Z,52.79
2018-05-24T08:11:45.000Z,54.35
2018-05-24T08:14:17.459Z,54.62
2018-05-24T08:16:49.953Z,55.60
2018-05-24T08:19:22.376Z,53.06
2018-05-24T08:21:54.883Z,53.03
2018-05-24T08:24:27.534Z,51.34
2018-05-24T08:26:59.994Z,48.84
2018-05-24T08:29:32.799Z,53.03
2018-05-24T08:32:05.220Z,51.72
2018-05-24T08:34:37.759Z,51.52
2018-05-24T08:37:10.488Z,50.86
2018-05-24T08:39:43.115Z,50.79
2018-05-24T08:42:15.475Z,51.22
2018-05-24T08:44:48.351Z,50.47
2018-05-24T08:47:20.945Z,49.54
2018-05-24T08:49:53.458Z,50.07
2018-05-24T08:52:26.037Z,49.16
2018-05-24T08:54:58.556Z,48.30
2018-05-24T08:57:30.989Z,48.27
2018-05-24T09:00:03.623Z,47.72
2018-05-24T09:02:36.000Z,48.74
2018-05-24T09:05:08.622Z,48.05
2018-05-24T09:07:41.012Z,48.97
2018-05-24T09:10:13.645Z,47.46
2018-05-24T09:12:46.160Z,47.24
2018-05-24T09:15:18.903Z,47.59
2018-05-24T09:17:51.333Z,47.07
2018-05-24T09:20:23.795Z,44.67
2018-05-24T09:22:56.338Z,44.54
2018-05-24T09:25:28.843Z,47.64
2018-05-24T09:28:01.358Z,46.92
2018-05-24T09:30:34.043Z,46.20
2018-05-24T09:33:06.469Z,48.68
2018-05-24T09:35:38.893Z,48.60
2018-05-24T09:38:11.446Z,46.62
2018-05-24T09:40:43.897Z,46.44
2018-05-24T10:43:31.692Z,41.42
2018-05-24T10:46:03.991Z,35.88
2018-05-24T10:48:36.474Z,34.07
2018-05-24T10:51:08.728Z,34.40
2018-05-24T10:53:41.083Z,36.14
2018-05-24T10:56:13.499Z,35.38
2018-05-24T10:58:45.861Z,35.40
2018-05-24T11:01:18.253Z,36.06
2018-05-24T11:03:50.612Z,39.77
2018-05-24T11:06:23.108Z,39.71
2018-05-24T11:08:55.607Z,37.80
2018-05-24T11:11:27.797Z,38.42
2018-05-24T11:14:00.297Z,38.62
2018-05-24T11:16:32.762Z,41.34
2018-05-24T11:19:04.979Z,38.09
2018-05-24T11:21:37.173Z,37.66
2018-05-24T11:24:09.612Z,39.30
2018-05-24T11:26:41.905Z,40.84
2018-05-24T11:29:14.249Z,40.35
2018-05-24T11:31:46.585Z,40.20
2018-05-24T11:34:21.820Z,39.38
2018-05-24T11:36:54.808Z,41.54
2018-05-24T11:39:27.237Z,44.05
2018-05-24T11:41:59.689Z,46.25
2018-05-24T11:44:32.111Z,47.58
2018-05-24T11:47:04.681Z,48.24
2018-05-24T11:49:36.957Z,48.30
2018-05-24T11:52:09.237Z,49.62
2018-05-24T11:54:41.520Z,48.16
2018-05-24T11:57:13.920Z,48.61
2018-05-24T11:59:46.285Z,49.85
2018-05-24T12:02:18.699Z,50.21
2018-05-24T12:04:51.327Z,51.91
2018-05-24T12:07:23.783Z,50.90
2018-05-24T12:09:56.148Z,53.22
2018-05-24T12:12:28.492Z,56.68
2018-05-24T12:15:01.310Z,57.23
2018-05-24T12:17:33.844Z,61.45
2018-05-24T12:20:06.269Z,62.15
2018-05-24T12:22:39.570Z,57.95
2018-05-24T12:25:11.993Z,59.52
2018-05-24T12:27:44.195Z,62.46
2018-05-24T12:30:34.725Z,65.39
2018-05-24T12:33:07.196Z,65.75
2018-05-24T12:35:39.612Z,69.57
2018-05-24T12:38:11.991Z,67.80
2018-05-24T12:40:44.317Z,67.34
2018-05-24T12:43:16.676Z,70.88
2018-05-24T12:45:49.311Z,67.56
2018-05-24T12:48:21.735Z,70.67
2018-05-24T12:50:54.085Z,72.43
2018-05-24T12:53:26.313Z,71.34
2018-05-24T12:55:58.582Z,71.87
2018-05-24T12:58:30.834Z,73.03
2018-05-24T13:01:03.204Z,73.04
2018-05-24T13:03:35.690Z,69.81
2018-05-24T13:06:08.162Z,69.45
2018-05-24T13:08:40.601Z,73.14
2018-05-24T13:11:12.958Z,71.11
2018-05-24T13:13:45.375Z,64.71
2018-05-24T13:16:17.906Z,65.59
2018-05-24T13:18:50.188Z,68.53
2018-05-24T13:21:22.770Z,68.06
2018-05-24T13:23:55.243Z,65.48
2018-05-24T13:26:27.753Z,64.93
2018-05-24T13:29:00.200Z,62.96
2018-05-24T13:31:32.522Z,57.06
2018-05-24T13:34:04.902Z,58.17
2018-05-24T13:36:37.273Z,56.83
2018-05-24T13:39:09.721Z,54.47
2018-05-24T13:41:42.079Z,55.30
2018-05-24T13:44:14.514Z,59.83
2018-05-24T13:46:47.019Z,58.09
2018-05-24T13:49:19.373Z,57.04
2018-05-24T13:51:51.913Z,57.50
2018-05-24T13:54:24.379Z,56.33
2018-05-24T13:56:56.891Z,55.45
2018-05-24T13:59:29.345Z,57.40
2018-05-24T14:02:01.809Z,55.03
2018-05-24T14:04:34.157Z,54.17
2018-05-24T14:07:06.420Z,54.43
2018-05-24T14:09:39.156Z,52.97
2018-05-24T14:12:11.693Z,55.52
2018-05-24T14:14:44.021Z,56.23
2018-05-24T14:17:16.390Z,58.99
2018-05-24T14:19:49.362Z,58.00
2018-05-24T14:22:21.831Z,59.86
2018-05-24T14:24:54.262Z,56.85
2018-05-24T14:27:28.158Z,58.03
2018-05-24T14:30:00.706Z,57.26
2018-05-24T14:32:33.277Z,55.88
2018-05-24T14:35:05.884Z,55.14
2018-05-24T14:37:38.297Z,56.31
2018-05-24T14:40:10.688Z,56.14
2018-05-24T14:42:43.230Z,54.85
2018-05-24T14:45:15.660Z,54.55
2018-05-24T14:47:55.024Z,54.25
2018-05-24T14:50:27.602Z,56.51
2018-05-24T14:53:00.002Z,57.68
2018-05-24T14:55:32.378Z,53.16
2018-05-24T14:58:04.826Z,53.46
2018-05-24T15:00:37.245Z,53.24
2018-05-24T15:03:09.673Z,54.39
2018-05-24T15:05:42.147Z,59.59
2018-05-24T15:08:14.700Z,58.97
2018-05-24T15:10:46.925Z,61.55
2018-05-24T15:13:31.410Z,61.65
2018-05-24T15:16:03.650Z,62.00
2018-05-24T15:18:36.034Z,62.84
2018-05-24T15:21:08.496Z,64.16
2018-05-24T15:23:46.163Z,65.87
2018-05-24T15:26:18.491Z,66.33
2018-05-24T15:28:50.859Z,67.29
2018-05-24T15:31:23.273Z,67.79
2018-05-24T15:33:55.688Z,68.04
2018-05-24T15:36:28.056Z,68.98
2018-05-24T15:39:00.371Z,69.05
2018-05-24T15:41:32.611Z,68.72
2018-05-24T15:44:04.894Z,70.21
2018-05-24T15:46:37.158Z,70.37
2018-05-24T15:49:09.995Z,71.06
2018-05-24T15:51:42.465Z,71.99
2018-05-24T15:54:14.934Z,73.16
2018-05-24T15:56:47.365Z,71.79
2018-05-24T15:59:19.679Z,73.00
2018-05-24T16:01:52.127Z,76.67
2018-05-24T16:04:24.500Z,74.73
2018-05-24T16:06:56.846Z,71.46
2018-05-24T16:09:29.355Z,71.52
2018-05-24T16:12:01.762Z,72.65
2018-05-24T16:14:34.183Z,75.04
2018-05-24T16:17:06.400Z,77.25
2018-05-24T16:19:38.763Z,76.26
2018-05-24T16:22:11.209Z,75.64
2018-05-24T16:24:43.529Z,73.70
2018-05-24T16:27:15.984Z,75.29
2018-05-24T16:29:48.377Z,72.91
2018-05-24T16:32:20.776Z,74.95
2018-05-24T16:34:53.150Z,77.43
2018-05-24T16:37:25.527Z,77.82
2018-05-24T16:39:58.004Z,77.67
2018-05-24T16:42:30.291Z,77.98
2018-05-24T16:45:02.687Z,78.81
2018-05-24T16:47:35.201Z,78.45
2018-05-24T16:50:07.819Z,76.19
2018-05-24T16:52:40.058Z,75.86
2018-05-24T16:55:12.363Z,76.87
2018-05-24T16:57:44.811Z,78.14
2018-05-24T17:00:17.174Z,78.87
2018-05-24T17:02:52.701Z,77.57
2018-05-24T17:05:28.380Z,78.57
2018-05-24T17:08:00.855Z,79.00
2018-05-24T17:10:33.207Z,79.06
2018-05-24T17:13:05.682Z,78.87
2018-05-24T17:15:37.993Z,79.74
2018-05-24T17:18:10.454Z,79.73
2018-05-24T17:20:43.269Z,79.17
2018-05-24T17:23:15.610Z,77.88
2018-05-24T17:26:02.780Z,78.35
2018-05-24T17:28:35.097Z,80.37
2018-05-24T17:31:07.623Z,82.01
2018-05-24T17:33:40.074Z,82.86
2018-05-24T17:36:12.763Z,83.45
2018-05-24T17:38:45.250Z,84.21
2018-05-24T17:41:17.577Z,84.66
2018-05-24T17:43:50.063Z,83.74
2018-05-24T17:46:22.555Z,84.77
2018-05-24T17:48:55.097Z,85.03
2018-05-24T17:51:28.896Z,85.26
2018-05-24T17:54:01.215Z,85.67
2018-05-24T17:56:33.758Z,86.23
2018-05-24T17:59:06.896Z,86.35
2018-05-24T18:01:39.601Z,86.19
2018-05-24T18:04:11.856Z,87.22
2018-05-24T18:06:44.334Z,87.23
2018-05-24T18:09:16.776Z,86.47
2018-05-24T18:11:49.117Z,85.48
2018-05-24T18:14:21.523Z,85.09
2018-05-24T18:16:53.824Z,84.43
2018-05-24T18:19:26.156Z,84.32
2018-05-24T18:21:58.522Z,83.91
2018-05-24T18:24:30.835Z,83.88
2018-05-24T18:27:03.324Z,83.88
2018-05-24T18:29:35.780Z,83.97
2018-05-24T18:32:08.084Z,80.67
2018-05-24T18:34:40.496Z,80.79
2018-05-24T18:37:13.004Z,81.63
2018-05-24T18:39:45.376Z,82.14
2018-05-24T18:42:17.643Z,79.74
2018-05-24T18:44:49.944Z,80.13
2018-05-24T18:47:22.315Z,79.82
2018-05-24T18:49:54.630Z,82.32
2018-05-24T18:52:35.331Z,82.78
2018-05-24T18:55:07.799Z,81.76
2018-05-24T18:57:40.110Z,82.65
2018-05-24T19:00:12.483Z,79.82
2018-05-24T19:02:44.788Z,80.67
2018-05-24T19:05:17.299Z,80.89
2018-05-24T19:07:49.875Z,81.37
2018-05-24T19:10:22.275Z,81.69
2018-05-24T19:12:54.809Z,82.95
2018-05-24T19:15:27.095Z,83.75
2018-05-24T19:17:59.416Z,85.17
2018-05-24T19:20:31.800Z,86.32
2018-05-24T19:23:04.218Z,87.44
2018-05-24T19:25:36.708Z,87.12
2018-05-24T19:28:09.074Z,84.81
2018-05-24T19:30:41.381Z,85.24
2018-05-24T19:33:13.853Z,84.48
2018-05-24T19:35:46.189Z,84.12
2018-05-24T19:38:18.586Z,84.64
2018-05-24T19:40:51.103Z,82.10
2018-05-24T19:43:23.452Z,83.01
2018-05-24T19:45:55.909Z,83.77
2018-05-24T19:48:28.289Z,83.75
2018-05-24T19:51:00.705Z,83.47
2018-05-24T19:53:33.194Z,83.64
2018-05-24T19:56:06.443Z,83.71
2018-05-24T19:58:38.977Z,83.53
2018-05-24T20:01:11.496Z,84.13
2018-05-24T20:03:43.718Z,84.85
2018-05-24T20:06:16.038Z,84.37
2018-05-24T20:08:48.647Z,84.07
2018-05-24T20:11:20.923Z,84.62
2018-05-24T20:13:53.261Z,83.80
2018-05-24T20:16:25.526Z,84.34
2018-05-24T20:18:57.859Z,84.15
2018-05-24T20:21:30.728Z,83.46
2018-05-24T20:24:03.156Z,81.54
2018-05-24T20:26:35.624Z,80.84
2018-05-24T20:29:08.168Z,80.25
2018-05-24T20:31:40.751Z,79.80
2018-05-24T20:34:13.180Z,80.23
2018-05-24T20:36:45.969Z,79.38
2018-05-24T20:39:18.536Z,79.83
2018-05-24T20:41:50.924Z,81.92
2018-05-24T20:44:23.367Z,82.51
2018-05-24T20:46:55.657Z,81.66
2018-05-24T20:49:28.372Z,83.71
2018-05-24T20:52:01.206Z,84.72
2018-05-24T20:54:33.844Z,84.41
2018-05-24T20:57:09.192Z,85.32
2018-05-24T20:59:41.568Z,84.49
2018-05-24T21:02:13.820Z,85.78
2018-05-24T21:04:46.177Z,86.48
2018-05-24T21:07:18.645Z,85.32
2018-05-24T21:09:51.172Z,84.61
2018-05-24T21:12:23.616Z,84.51
2018-05-24T21:14:56.077Z,84.52
2018-05-24T21:17:28.293Z,85.51
2018-05-24T21:20:00.622Z,85.23
2018-05-24T21:22:33.058Z,84.23
2018-05-24T21:25:05.710Z,84.86
2018-05-24T21:27:38.176Z,85.17
2018-05-24T21:30:10.539Z,85.79
2018-05-24T21:32:42.861Z,86.10
2018-05-24T21:35:15.261Z,85.94
2018-05-24T21:37:47.534Z,86.05
2018-05-24T21:40:21.836Z,85.31
2018-05-24T21:42:54.053Z,84.27
2018-05-24T21:45:26.447Z,85.34
2018-05-24T21:47:58.870Z,85.61
2018-05-24T21:50:34.398Z,85.87
2018-05-24T21:53:06.843Z,86.74
2018-05-24T21:55:39.576Z,87.30
2018-05-24T21:58:12.084Z,87.88
2018-05-24T22:00:50.346Z,87.98
2018-05-24T22:03:22.878Z,87.28
2018-05-24T22:05:55.214Z,86.73
2018-05-24T22:08:27.507Z,86.63
2018-05-24T22:11:00.199Z,85.69
2018-05-24T22:13:32.589Z,85.15
2018-05-24T22:16:04.973Z,84.96
2018-05-24T22:18:37.360Z,84.86
2018-05-24T22:21:09.878Z,84.65
2018-05-24T22:23:42.100Z,85.08
2018-05-24T22:26:14.705Z,85.25
2018-05-24T22:28:47.143Z,85.25
2018-05-24T22:31:19.500Z,85.52
2018-05-24T22:33:51.876Z,85.74
2018-05-24T22:36:24.216Z,85.63
2018-05-24T22:38:56.471Z,85.72
2018-05-24T22:41:28.820Z,85.37
2018-05-24T22:44:01.148Z,85.61
2018-05-24T22:46:33.494Z,85.59
2018-05-24T22:49:05.780Z,85.70
2018-05-24T22:51:38.865Z,85.84
2018-05-24T22:54:11.246Z,85.04
2018-05-24T22:56:43.844Z,85.41
2018-05-24T22:59:16.272Z,84.79
2018-05-24T23:01:48.936Z,85.23
2018-05-24T23:04:21.403Z,85.71
2018-05-24T23:06:53.648Z,85.71
2018-05-24T23:09:25.916Z,86.08
2018-05-24T23:11:59.676Z,85.80
2018-05-24T23:14:32.045Z,85.72
2018-05-24T23:17:04.338Z,85.49
2018-05-24T23:19:36.543Z,85.97
2018-05-24T23:22:08.927Z,85.83
2018-05-24T23:24:41.324Z,85.67
2018-05-24T23:27:14.134Z,85.83
2018-05-24T23:29:46.703Z,85.32
2018-05-24T23:32:18.962Z,85.74
2018-05-24T23:34:51.375Z,85.63
2018-05-24T23:37:23.907Z,85.84
2018-05-24T23:39:56.370Z,86.15
2018-05-24T23:42:28.986Z,85.59
2018-05-24T23:45:01.353Z,85.46
2018-05-24T23:47:33.689Z,84.98
2018-05-24T23:50:05.992Z,84.68
2018-05-24T23:52:38.455Z,85.12
2018-05-24T23:55:11.061Z,85.54
2018-05-24T23:57:43.853Z,85.91
